createdAt,value
2023-02-19T00:01:49.623Z,9.50
2023-02-19T00:04:21.986Z,9.50
2023-02-19T00:06:50.326Z,9.50
2023-02-19T00:09:20.339Z,9.50
2023-02-19T00:11:48.747Z,9.50
2023-02-19T00:14:18.788Z,9.50
2023-02-19T00:16:46.934Z,9.60
2023-02-19T00:19:17.085Z,9.60
2023-02-19T00:21:46.518Z,9.70
2023-02-19T00:24:15.504Z,9.70
2023-02-19T00:26:44.953Z,9.60
2023-02-19T00:29:15.558Z,9.60
2023-02-19T00:31:44.481Z,9.60
2023-02-19T00:34:13.232Z,9.70
2023-02-19T00:36:42.224Z,9.70
2023-02-19T00:39:15.784Z,9.70
2023-02-19T00:41:44.133Z,9.70
2023-02-19T00:44:13.430Z,9.70
2023-02-19T00:46:43.730Z,9.70
2023-02-19T00:49:17.752Z,9.70
2023-02-19T00:51:45.898Z,9.70
2023-02-19T00:54:15.987Z,9.80
2023-02-19T00:56:44.288Z,9.70
2023-02-19T00:59:12.838Z,9.70
2023-02-19T01:01:40.971Z,9.70
2023-02-19T01:04:09.198Z,9.70
2023-02-19T01:06:37.439Z,9.70
2023-02-19T01:09:07.146Z,9.70
2023-02-19T01:11:36.810Z,9.70
2023-02-19T01:14:05.317Z,9.70
2023-02-19T01:16:33.636Z,9.70
2023-02-19T01:19:01.973Z,9.70
2023-02-19T01:21:31.155Z,9.70
2023-02-19T01:23:59.925Z,9.70
2023-02-19T01:26:30.452Z,9.70
2023-02-19T01:29:00.220Z,9.70
2023-02-19T01:31:28.892Z,9.70
2023-02-19T01:33:58.945Z,9.70
2023-02-19T01:36:28.077Z,9.70
2023-02-19T01:38:56.520Z,9.60
2023-02-19T01:41:26.696Z,9.60
2023-02-19T01:44:05.269Z,9.70
2023-02-19T01:46:34.297Z,9.60
2023-02-19T01:49:07.268Z,9.70
2023-02-19T01:51:39.154Z,9.70
2023-02-19T01:54:10.046Z,9.70
2023-02-19T01:56:42.666Z,9.70
2023-02-19T01:59:12.210Z,9.70
2023-02-19T02:01:41.147Z,9.70
2023-02-19T02:04:11.891Z,9.70
2023-02-19T02:06:45.814Z,9.60
2023-02-19T02:09:32.336Z,9.60
2023-02-19T02:12:00.335Z,9.60
2023-02-19T02:14:32.467Z,9.50
2023-02-19T02:17:10.284Z,9.50
2023-02-19T02:20:02.530Z,9.50
2023-02-19T02:22:36.244Z,9.50
2023-02-19T02:25:34.793Z,9.50
2023-02-19T02:28:18.389Z,9.50
2023-02-19T02:30:51.604Z,9.60
2023-02-19T02:33:27.714Z,9.60
2023-02-19T02:35:59.695Z,9.60
2023-02-19T02:38:30.783Z,9.60
2023-02-19T02:40:59.356Z,9.70
2023-02-19T02:43:27.512Z,9.70
2023-02-19T02:45:57.086Z,9.70
2023-02-19T02:48:30.924Z,9.70
2023-02-19T02:51:03.615Z,9.70
2023-02-19T02:53:53.780Z,9.70
2023-02-19T02:56:23.348Z,9.70
2023-02-19T02:58:52.748Z,9.70
2023-02-19T03:01:44.181Z,9.70
2023-02-19T03:04:15.778Z,9.70
2023-02-19T03:06:46.060Z,9.70
2023-02-19T03:09:19.698Z,9.70
2023-02-19T03:12:09.380Z,9.70
2023-02-19T03:14:59.926Z,9.70
2023-02-19T03:17:53.907Z,9.70
2023-02-19T03:20:25.378Z,9.70
2023-02-19T03:22:55.986Z,9.70
2023-02-19T03:25:45.485Z,9.70
2023-02-19T03:28:17.616Z,9.70
2023-02-19T03:30:50.742Z,9.60
2023-02-19T03:33:23.311Z,9.70
2023-02-19T03:35:54.528Z,9.70
2023-02-19T03:38:26.410Z,9.70
2023-02-19T03:40:59.842Z,9.70
2023-02-19T03:43:36.453Z,9.70
2023-02-19T03:46:10.736Z,9.70
2023-02-19T03:48:49.428Z,9.60
2023-02-19T03:51:31.869Z,9.70
2023-02-19T03:54:12.269Z,9.60
2023-02-19T03:56:46.335Z,9.70
2023-02-19T03:59:19.728Z,9.70
2023-02-19T04:01:53.513Z,9.70
2023-02-19T04:04:29.154Z,9.70
2023-02-19T04:06:58.635Z,9.70
2023-02-19T04:09:31.085Z,9.70
2023-02-19T04:12:00.453Z,9.60
2023-02-19T04:14:31.561Z,9.60
2023-02-19T04:17:02.960Z,9.70
2023-02-19T04:19:36.230Z,9.70
2023-02-19T04:22:07.087Z,9.60
2023-02-19T04:24:39.879Z,9.60
2023-02-19T04:27:09.786Z,9.60
2023-02-19T04:29:39.272Z,9.60
2023-02-19T04:32:07.871Z,9.60
2023-02-19T04:34:37.298Z,9.70
2023-02-19T04:37:05.783Z,9.70
2023-02-19T04:39:34.040Z,9.70
2023-02-19T04:42:02.115Z,9.70
2023-02-19T04:44:30.144Z,9.70
2023-02-19T04:46:58.159Z,9.70
2023-02-19T04:49:26.306Z,9.70
2023-02-19T04:51:55.784Z,9.70
2023-02-19T04:54:23.897Z,9.70
2023-02-19T04:56:51.922Z,9.70
2023-02-19T04:59:19.935Z,9.70
2023-02-19T05:01:47.975Z,9.70
2023-02-19T05:04:16.096Z,9.60
2023-02-19T05:06:44.158Z,9.60
2023-02-19T05:09:13.528Z,9.60
2023-02-19T05:11:41.567Z,9.60
2023-02-19T05:14:09.557Z,9.60
2023-02-19T05:16:37.603Z,9.60
2023-02-19T05:19:05.598Z,9.50
2023-02-19T05:21:33.627Z,9.50
2023-02-19T05:24:01.631Z,9.50
2023-02-19T05:26:31.273Z,9.50
2023-02-19T05:29:00.511Z,9.50
2023-02-19T05:31:29.192Z,9.50
2023-02-19T05:33:57.702Z,9.50
2023-02-19T05:36:25.863Z,9.50
2023-02-19T05:38:55.157Z,9.50
2023-02-19T05:41:24.684Z,9.50
2023-02-19T05:43:54.808Z,9.50
2023-02-19T05:46:24.949Z,9.50
2023-02-19T05:48:54.097Z,9.60
2023-02-19T05:51:23.655Z,9.60
2023-02-19T05:53:51.882Z,9.60
2023-02-19T05:56:27.689Z,9.50
2023-02-19T05:58:57.765Z,9.50
2023-02-19T06:01:27.948Z,9.50
2023-02-19T06:03:57.646Z,9.50
2023-02-19T06:06:26.956Z,9.50
2023-02-19T06:08:55.579Z,9.50
2023-02-19T06:11:24.220Z,9.40
2023-02-19T06:13:52.522Z,9.40
2023-02-19T06:16:22.699Z,9.50
2023-02-19T06:18:51.036Z,9.40
2023-02-19T06:21:19.737Z,9.40
2023-02-19T06:23:48.253Z,9.40
2023-02-19T06:26:18.820Z,9.40
2023-02-19T06:28:48.140Z,9.40
2023-02-19T06:31:16.955Z,9.40
2023-02-19T06:33:46.784Z,9.40
2023-02-19T06:36:16.627Z,9.40
2023-02-19T06:38:45.170Z,9.40
2023-02-19T06:41:14.218Z,9.40
2023-02-19T06:43:42.936Z,9.40
2023-02-19T06:46:13.526Z,9.40
2023-02-19T06:48:42.943Z,9.40
2023-02-19T06:51:14.249Z,9.40
2023-02-19T06:53:42.298Z,9.40
2023-02-19T06:56:25.133Z,9.50
2023-02-19T06:58:53.594Z,9.50
2023-02-19T07:01:22.004Z,9.60
2023-02-19T07:03:50.954Z,9.50
2023-02-19T07:06:20.587Z,9.60
2023-02-19T07:08:48.858Z,9.50
2023-02-19T07:11:17.052Z,9.50
2023-02-19T07:13:45.482Z,9.50
2023-02-19T07:16:14.053Z,9.50
2023-02-19T07:18:42.476Z,9.50
2023-02-19T07:21:13.187Z,9.40
2023-02-19T07:23:43.245Z,9.40
2023-02-19T07:26:12.358Z,9.40
2023-02-19T07:28:41.917Z,9.40
2023-02-19T07:31:10.533Z,9.40
2023-02-19T07:33:38.832Z,9.50
2023-02-19T07:36:08.803Z,9.50
2023-02-19T07:38:37.097Z,9.50
2023-02-19T07:41:07.918Z,9.50
2023-02-19T07:43:37.802Z,9.60
2023-02-19T07:46:06.727Z,9.60
2023-02-19T07:48:35.582Z,9.60
2023-02-19T07:51:05.523Z,9.70
2023-02-19T07:53:35.315Z,9.70
2023-02-19T07:56:04.863Z,9.70
2023-02-19T07:58:35.316Z,9.70
2023-02-19T08:01:09.327Z,9.70
2023-02-19T08:03:36.873Z,9.80
2023-02-19T08:06:05.304Z,9.70
2023-02-19T08:08:33.458Z,9.70
2023-02-19T08:11:20.170Z,9.70
2023-02-19T08:13:53.093Z,9.70
2023-02-19T08:16:33.087Z,9.70
2023-02-19T08:19:01.556Z,9.70
2023-02-19T08:21:29.518Z,9.70
2023-02-19T08:23:57.550Z,9.60
2023-02-19T08:26:25.677Z,9.60
2023-02-19T08:28:55.096Z,9.60
2023-02-19T08:31:23.325Z,9.60
2023-02-19T08:33:51.424Z,9.60
2023-02-19T08:36:19.472Z,9.60
2023-02-19T08:38:47.654Z,9.60
2023-02-19T08:41:16.620Z,9.60
2023-02-19T08:43:45.013Z,9.70
2023-02-19T08:46:14.563Z,9.70
2023-02-19T08:48:42.659Z,9.70
2023-02-19T08:51:12.794Z,9.80
2023-02-19T08:53:42.306Z,9.90
2023-02-19T08:56:11.496Z,9.90
2023-02-19T08:58:39.663Z,9.90
2023-02-19T09:01:10.480Z,9.90
2023-02-19T09:03:40.223Z,9.90
2023-02-19T09:06:08.603Z,9.90
2023-02-19T09:08:36.914Z,9.70
2023-02-19T09:11:07.156Z,9.80
2023-02-19T09:13:35.469Z,9.90
2023-02-19T09:16:04.732Z,9.90
2023-02-19T09:18:33.111Z,9.90
2023-02-19T09:21:02.919Z,10.00
2023-02-19T09:23:31.068Z,9.90
2023-02-19T09:26:00.578Z,10.00
2023-02-19T09:28:29.187Z,9.90
2023-02-19T09:30:57.253Z,9.90
2023-02-19T09:33:25.334Z,9.80
2023-02-19T09:35:53.309Z,9.90
2023-02-19T09:38:22.702Z,10.00
2023-02-19T09:40:50.714Z,10.00
2023-02-19T09:43:21.707Z,10.00
2023-02-19T09:45:50.468Z,10.00
2023-02-19T09:48:18.537Z,10.00
2023-02-19T09:50:49.776Z,10.10
2023-02-19T09:53:23.941Z,10.10
2023-02-19T09:55:53.636Z,10.10
2023-02-19T09:58:29.962Z,10.10
2023-02-19T10:01:01.175Z,10.20
2023-02-19T10:03:34.327Z,10.10
2023-02-19T10:06:06.227Z,10.10
2023-02-19T10:08:37.837Z,10.10
2023-02-19T10:11:07.249Z,10.10
2023-02-19T10:13:38.839Z,10.20
2023-02-19T10:16:11.437Z,10.20
2023-02-19T10:18:42.366Z,10.20
2023-02-19T10:21:13.427Z,10.30
2023-02-19T10:23:43.849Z,10.30
2023-02-19T10:26:12.007Z,10.30
2023-02-19T10:28:40.192Z,10.40
2023-02-19T10:31:19.470Z,10.50
2023-02-19T10:33:53.257Z,10.40
2023-02-19T10:36:30.476Z,10.50
2023-02-19T10:39:03.022Z,10.60
2023-02-19T10:41:32.535Z,10.60
2023-02-19T10:44:06.610Z,10.50
2023-02-19T10:46:37.545Z,10.50
2023-02-19T10:49:07.793Z,10.50
2023-02-19T10:51:38.020Z,10.40
2023-02-19T10:54:16.597Z,10.50
2023-02-19T10:56:44.874Z,10.40
2023-02-19T10:59:24.000Z,10.50
2023-02-19T11:01:56.107Z,10.50
2023-02-19T11:04:24.719Z,10.50
2023-02-19T11:06:52.960Z,10.50
2023-02-19T11:09:29.139Z,10.50
2023-02-19T11:11:59.435Z,10.50
2023-02-19T11:14:30.053Z,10.60
2023-02-19T11:16:59.869Z,10.60
2023-02-19T11:19:36.520Z,10.70
2023-02-19T11:22:21.016Z,10.70
2023-02-19T11:24:56.686Z,10.70
2023-02-19T11:27:26.585Z,10.70
2023-02-19T11:29:54.727Z,10.70
2023-02-19T11:32:29.653Z,10.80
2023-02-19T11:35:17.939Z,11.00
2023-02-19T11:37:56.879Z,11.10
2023-02-19T11:40:39.002Z,11.20
2023-02-19T11:43:21.294Z,11.10
2023-02-19T11:45:57.799Z,11.10
2023-02-19T11:48:39.419Z,11.10
2023-02-19T11:51:23.498Z,11.00
2023-02-19T11:54:01.918Z,11.00
2023-02-19T11:56:35.399Z,10.90
2023-02-19T11:59:05.976Z,10.80
2023-02-19T12:01:56.078Z,10.80
2023-02-19T12:04:53.712Z,10.80
2023-02-19T12:07:35.230Z,10.70
2023-02-19T12:10:13.157Z,10.70
2023-02-19T12:12:58.693Z,10.70
2023-02-19T12:15:50.380Z,10.70
2023-02-19T12:19:01.550Z,10.70
2023-02-19T12:21:42.254Z,10.50
2023-02-19T12:24:30.976Z,10.30
2023-02-19T12:27:13.494Z,10.30
2023-02-19T12:30:01.978Z,10.10
2023-02-19T12:32:55.505Z,10.10
2023-02-19T12:35:41.745Z,10.10
2023-02-19T12:38:22.888Z,10.20
2023-02-19T12:41:13.217Z,10.20
2023-02-19T12:43:46.504Z,10.30
2023-02-19T12:46:21.637Z,10.10
2023-02-19T12:48:56.240Z,10.10
2023-02-19T12:51:28.728Z,10.10
2023-02-19T12:54:01.693Z,10.10
2023-02-19T12:56:34.480Z,10.20
2023-02-19T12:59:07.166Z,10.10
2023-02-19T13:01:44.590Z,10.20
2023-02-19T13:04:23.790Z,10.20
2023-02-19T13:06:54.903Z,10.20
2023-02-19T13:09:29.274Z,10.10
2023-02-19T13:12:00.994Z,10.00
2023-02-19T13:14:33.668Z,10.10
2023-02-19T13:17:09.425Z,10.00
2023-02-19T13:19:39.411Z,10.00
2023-02-19T13:22:36.825Z,10.00
2023-02-19T13:25:07.165Z,10.10
2023-02-19T13:27:56.407Z,10.10
2023-02-19T13:30:35.043Z,10.10
2023-02-19T13:33:23.575Z,10.30
2023-02-19T13:36:10.132Z,10.40
2023-02-19T13:38:43.122Z,10.40
2023-02-19T13:41:22.998Z,10.40
2023-02-19T13:43:58.348Z,10.50
2023-02-19T13:46:33.954Z,10.50
2023-02-19T13:49:43.391Z,10.40
2023-02-19T13:52:39.776Z,10.40
2023-02-19T13:55:46.664Z,10.30
2023-02-19T13:58:40.841Z,10.30
2023-02-19T14:01:10.718Z,10.20
2023-02-19T14:03:50.841Z,10.20
2023-02-19T14:06:20.290Z,10.20
2023-02-19T14:08:51.431Z,10.20
2023-02-19T14:11:40.196Z,10.20
2023-02-19T14:14:29.064Z,10.10
2023-02-19T14:17:04.937Z,10.20
2023-02-19T14:19:59.373Z,10.20
2023-02-19T14:22:52.785Z,10.30
2023-02-19T14:25:29.518Z,10.30
2023-02-19T14:28:02.791Z,10.30
2023-02-19T14:30:32.652Z,10.30
2023-02-19T14:33:10.682Z,10.40
2023-02-19T14:35:41.573Z,10.50
2023-02-19T14:38:19.217Z,10.50
2023-02-19T14:40:48.653Z,10.50
2023-02-19T14:43:19.811Z,10.50
2023-02-19T14:45:51.044Z,10.60
2023-02-19T14:48:24.191Z,10.60
2023-02-19T14:50:57.083Z,10.60
2023-02-19T14:53:27.603Z,10.50
2023-02-19T14:55:58.373Z,10.50
2023-02-19T14:58:31.610Z,10.60
2023-02-19T15:00:59.722Z,10.60
2023-02-19T15:03:34.453Z,10.50
2023-02-19T15:06:06.411Z,10.50
2023-02-19T15:08:39.021Z,10.40
2023-02-19T15:11:12.547Z,10.40
2023-02-19T15:13:45.655Z,10.30
2023-02-19T15:16:19.283Z,10.20
2023-02-19T15:18:48.146Z,10.20
2023-02-19T15:21:24.673Z,10.20
2023-02-19T15:23:56.102Z,10.10
2023-02-19T15:26:29.039Z,10.00
2023-02-19T15:29:01.660Z,10.00
2023-02-19T15:31:30.358Z,9.90
2023-02-19T15:33:58.456Z,9.90
2023-02-19T15:36:29.864Z,9.80
2023-02-19T15:39:02.476Z,9.80
2023-02-19T15:41:35.507Z,9.90
2023-02-19T15:44:40.649Z,9.80
2023-02-19T15:47:15.346Z,9.80
2023-02-19T15:49:50.810Z,9.80
2023-02-19T15:52:26.537Z,9.90
2023-02-19T15:55:03.479Z,9.90
2023-02-19T15:57:36.448Z,9.90
2023-02-19T16:00:08.321Z,9.90
2023-02-19T16:02:37.108Z,9.80
2023-02-19T16:05:13.600Z,9.80
2023-02-19T16:07:43.656Z,9.80
2023-02-19T16:10:32.582Z,9.80
2023-02-19T16:13:02.410Z,9.80
2023-02-19T16:15:31.867Z,9.70
2023-02-19T16:18:00.535Z,9.70
2023-02-19T16:20:30.921Z,9.80
2023-02-19T16:23:10.905Z,9.70
2023-02-19T16:25:44.072Z,9.70
2023-02-19T16:28:13.914Z,9.70
2023-02-19T16:30:42.725Z,9.70
2023-02-19T16:33:34.792Z,9.70
2023-02-19T16:36:35.463Z,9.70
2023-02-19T16:39:20.213Z,9.70
2023-02-19T16:42:19.877Z,9.60
2023-02-19T16:44:48.776Z,9.60
2023-02-19T16:47:29.587Z,9.60
2023-02-19T16:49:59.921Z,9.60
2023-02-19T16:52:28.054Z,9.50
2023-02-19T16:54:56.171Z,9.40
2023-02-19T16:57:25.594Z,9.40
2023-02-19T16:59:53.631Z,9.40
2023-02-19T17:02:24.657Z,9.40
2023-02-19T17:04:55.165Z,9.40
2023-02-19T17:07:23.896Z,9.40
2023-02-19T17:09:51.915Z,9.30
2023-02-19T17:12:20.204Z,9.40
2023-02-19T17:14:49.592Z,9.40
2023-02-19T17:17:17.587Z,9.40
2023-02-19T17:19:45.605Z,9.40
2023-02-19T17:22:16.894Z,9.40
2023-02-19T17:24:45.984Z,9.40
2023-02-19T17:27:14.277Z,9.40
2023-02-19T17:29:42.306Z,9.40
2023-02-19T17:32:11.743Z,9.30
2023-02-19T17:34:39.949Z,9.40
2023-02-19T17:37:07.946Z,9.40
2023-02-19T17:39:35.990Z,9.40
2023-02-19T17:42:05.294Z,9.40
2023-02-19T17:44:33.362Z,9.30
2023-02-19T17:47:01.868Z,9.30
2023-02-19T17:49:31.260Z,9.30
2023-02-19T17:51:59.606Z,9.30
2023-02-19T17:54:27.623Z,9.40
2023-02-19T17:56:55.622Z,9.40
2023-02-19T17:59:23.638Z,9.30
2023-02-19T18:01:51.630Z,9.30
2023-02-19T18:04:19.674Z,9.30
2023-02-19T18:06:49.154Z,9.20
2023-02-19T18:09:19.411Z,9.20
2023-02-19T18:11:47.564Z,9.30
2023-02-19T18:14:15.660Z,9.30
2023-02-19T18:16:49.855Z,9.30
2023-02-19T18:19:18.488Z,9.30
2023-02-19T18:21:47.854Z,9.30
2023-02-19T18:24:15.997Z,9.30
2023-02-19T18:26:44.009Z,9.30
2023-02-19T18:29:12.480Z,9.30
2023-02-19T18:31:40.649Z,9.30
2023-02-19T18:34:17.918Z,9.30
2023-02-19T18:36:47.931Z,9.30
2023-02-19T18:39:16.357Z,9.20
2023-02-19T18:41:48.161Z,9.20
2023-02-19T18:44:19.680Z,9.20
2023-02-19T18:46:47.732Z,9.20
2023-02-19T18:49:16.439Z,9.20
2023-02-19T18:51:44.554Z,9.20
2023-02-19T18:54:13.985Z,9.10
2023-02-19T18:56:43.327Z,9.20
2023-02-19T18:59:11.944Z,9.10
2023-02-19T19:01:40.343Z,9.10
2023-02-19T19:04:08.766Z,9.10
2023-02-19T19:06:36.881Z,9.10
2023-02-19T19:09:05.983Z,9.10
2023-02-19T19:11:35.701Z,9.10
2023-02-19T19:14:03.761Z,9.20
2023-02-19T19:16:31.820Z,9.20
2023-02-19T19:18:59.803Z,9.20
2023-02-19T19:21:27.847Z,9.20
2023-02-19T19:23:55.878Z,9.10
2023-02-19T19:26:23.957Z,9.10
2023-02-19T19:28:53.352Z,9.10
2023-02-19T19:31:22.427Z,9.10
2023-02-19T19:33:50.592Z,9.10
2023-02-19T19:36:21.953Z,9.10
2023-02-19T19:38:50.444Z,9.00
2023-02-19T19:41:20.171Z,9.00
2023-02-19T19:43:48.240Z,9.00
2023-02-19T19:46:19.935Z,9.10
2023-02-19T19:48:48.355Z,9.10
2023-02-19T19:51:17.131Z,9.00
2023-02-19T19:53:48.579Z,9.00
2023-02-19T19:56:16.789Z,9.00
2023-02-19T19:58:44.852Z,8.90
2023-02-19T20:01:13.176Z,8.90
2023-02-19T20:03:42.735Z,8.90
2023-02-19T20:06:10.757Z,9.00
2023-02-19T20:08:38.771Z,9.00
2023-02-19T20:11:06.834Z,8.90
2023-02-19T20:13:34.826Z,8.90
2023-02-19T20:16:02.911Z,8.90
2023-02-19T20:18:30.939Z,8.80
2023-02-19T20:21:00.470Z,8.90
2023-02-19T20:23:28.704Z,8.80
2023-02-19T20:25:57.645Z,8.80
2023-02-19T20:28:25.692Z,8.70
2023-02-19T20:30:53.752Z,8.70
2023-02-19T20:33:21.770Z,8.60
2023-02-19T20:35:49.801Z,8.60
2023-02-19T20:38:19.211Z,8.60
2023-02-19T20:40:47.226Z,8.50
2023-02-19T20:43:15.275Z,8.40
2023-02-19T20:45:45.821Z,8.30
2023-02-19T20:48:16.504Z,8.30
2023-02-19T20:50:45.012Z,8.20
2023-02-19T20:53:13.235Z,8.10
2023-02-19T20:55:42.789Z,8.00
2023-02-19T20:58:10.795Z,7.90
2023-02-19T21:00:38.865Z,7.90
2023-02-19T21:03:08.968Z,7.80
2023-02-19T21:05:37.611Z,7.80
2023-02-19T21:08:06.184Z,7.70
2023-02-19T21:10:34.537Z,7.80
2023-02-19T21:13:03.954Z,7.80
2023-02-19T21:15:32.199Z,7.80
2023-02-19T21:18:00.232Z,7.80
2023-02-19T21:20:28.329Z,7.80
2023-02-19T21:22:56.378Z,7.80
2023-02-19T21:25:24.522Z,7.80
2023-02-19T21:27:52.557Z,7.90
2023-02-19T21:30:22.068Z,7.90
2023-02-19T21:32:50.220Z,7.90
2023-02-19T21:35:18.430Z,7.90
2023-02-19T21:37:46.468Z,8.00
2023-02-19T21:40:15.168Z,8.00
2023-02-19T21:42:43.378Z,8.00
2023-02-19T21:45:11.779Z,8.10
2023-02-19T21:47:41.242Z,8.10
2023-02-19T21:50:09.896Z,8.10
2023-02-19T21:52:38.077Z,8.10
2023-02-19T21:55:06.840Z,8.10
2023-02-19T21:57:34.895Z,8.20
2023-02-19T22:00:05.166Z,8.10
2023-02-19T22:02:33.588Z,8.10
2023-02-19T22:05:03.059Z,8.10
2023-02-19T22:07:31.757Z,8.10
2023-02-19T22:09:59.774Z,8.10
2023-02-19T22:12:28.487Z,8.00
2023-02-19T22:14:56.456Z,8.10
2023-02-19T22:17:24.512Z,8.00
2023-02-19T22:19:52.480Z,8.00
2023-02-19T22:22:21.859Z,7.90
2023-02-19T22:24:49.859Z,7.90
2023-02-19T22:27:17.878Z,7.80
2023-02-19T22:29:45.890Z,7.80
2023-02-19T22:32:13.986Z,7.80
2023-02-19T22:34:42.265Z,7.80
2023-02-19T22:37:10.572Z,7.80
2023-02-19T22:39:40.001Z,7.70
2023-02-19T22:42:08.079Z,7.70
2023-02-19T22:44:36.118Z,7.80
2023-02-19T22:47:04.113Z,7.70
2023-02-19T22:49:32.135Z,7.70
2023-02-19T22:52:03.299Z,7.70
2023-02-19T22:54:31.467Z,7.70
2023-02-19T22:57:00.919Z,7.70
2023-02-19T22:59:28.972Z,7.70
2023-02-19T23:01:57.031Z,7.60
2023-02-19T23:04:26.742Z,7.60
2023-02-19T23:06:54.856Z,7.60
2023-02-19T23:09:24.752Z,7.60
2023-02-19T23:11:53.603Z,7.50
2023-02-19T23:14:24.375Z,7.60
2023-02-19T23:16:52.458Z,7.50
2023-02-19T23:19:20.515Z,7.50
2023-02-19T23:21:48.672Z,7.40
2023-02-19T23:24:17.526Z,7.40
2023-02-19T23:26:46.442Z,7.40
2023-02-19T23:29:16.888Z,7.40
2023-02-19T23:31:46.568Z,7.40
2023-02-19T23:34:15.140Z,7.40
2023-02-19T23:36:43.754Z,7.30
2023-02-19T23:39:13.360Z,7.30
2023-02-19T23:41:47.346Z,7.30
2023-02-19T23:44:15.454Z,7.30
2023-02-19T23:46:44.446Z,7.30
2023-02-19T23:49:14.488Z,7.20
2023-02-19T23:51:42.639Z,7.20
2023-02-19T23:54:10.698Z,7.20
2023-02-19T23:56:38.854Z,7.10
2023-02-19T23:59:06.950Z,7.10
